Time,TemperatureF,DewpointF,PressureIn,WindDirection,WindDirectionDegrees,WindSpeedMPH,WindSpeedGustMPH,Humidity,HourlyPrecipIn,Conditions,Clouds,dailyrainin,SoftwareType,DateUTC
2013-02-05 00:00:00,44.4,34.5,29.48,NNE,22,3.0,10.0,68,0.00,,,0.00,Wunderground v.1.15,2013-02-05 06:00:00,
2013-02-05 00:10:00,44.1,34.2,29.48,NNW,339,3.0,10.0,68,0.00,,,0.00,Wunderground v.1.15,2013-02-05 06:10:00,
2013-02-05 00:15:00,43.8,33.9,29.48,NNW,338,3.0,10.0,68,0.00,,,0.00,Wunderground v.1.15,2013-02-05 06:15:00,
2013-02-05 00:25:00,43.3,33.8,29.48,NNE,19,4.0,10.0,69,0.00,,,0.00,Wunderground v.1.15,2013-02-05 06:25:00,
2013-02-05 00:30:00,43.2,33.7,29.48,NNE,30,3.0,10.0,69,0.00,,,0.00,Wunderground v.1.15,2013-02-05 06:30:00,
2013-02-05 00:35:00,43.0,33.9,29.48,NNE,26,3.0,10.0,70,0.00,,,0.00,Wunderground v.1.15,2013-02-05 06:35:00,
2013-02-05 00:45:00,42.6,33.5,29.48,NNE,33,2.0,10.0,70,0.00,,,0.00,Wunderground v.1.15,2013-02-05 06:45:00,
2013-02-05 00:50:00,42.4,33.3,29.48,NNW,341,2.0,2.0,70,0.00,,,0.00,Wunderground v.1.15,2013-02-05 06:50:00,
2013-02-05 01:00:00,41.9,33.2,29.47,NNW,338,1.0,10.0,71,0.00,,,0.00,Wunderground v.1.15,2013-02-05 07:00:00,
2013-02-05 01:10:00,41.5,33.1,29.47,NNE,26,2.0,10.0,72,0.00,,,0.00,Wunderground v.1.15,2013-02-05 07:10:00,
2013-02-05 01:20:00,41.1,33.1,29.47,NNW,335,3.0,10.0,73,0.00,,,0.00,Wunderground v.1.15,2013-02-05 07:20:00,
2013-02-05 01:30:00,40.9,32.9,29.47,North,9,3.0,10.0,73,0.00,,,0.00,Wunderground v.1.15,2013-02-05 07:30:00,
2013-02-05 01:35:00,40.7,33.1,29.47,NE,50,3.0,10.0,74,0.00,,,0.00,Wunderground v.1.15,2013-02-05 07:35:00,
2013-02-05 01:40:00,40.5,32.9,29.46,NNE,32,3.0,10.0,74,0.00,,,0.00,Wunderground v.1.15,2013-02-05 07:40:00,
2013-02-05 01:55:00,39.8,32.8,29.46,NE,50,2.0,10.0,76,0.00,,,0.00,Wunderground v.1.15,2013-02-05 07:55:00,
2013-02-05 02:00:00,39.6,32.7,29.46,ENE,58,2.0,10.0,76,0.00,,,0.00,Wunderground v.1.15,2013-02-05 08:00:00,
2013-02-05 02:10:00,39.2,32.6,29.46,NE,53,1.0,10.0,77,0.00,,,0.00,Wunderground v.1.15,2013-02-05 08:10:00,
2013-02-05 02:20:00,38.8,32.5,29.46,North,11,1.0,10.0,78,0.00,,,0.00,Wunderground v.1.15,2013-02-05 08:20:00,
2013-02-05 02:30:00,38.7,32.4,29.45,ENE,60,2.0,2.0,78,0.00,,,0.00,Wunderground v.1.15,2013-02-05 08:30:00,
2013-02-05 02:40:00,38.5,32.2,29.45,NNW,332,1.0,1.0,78,0.00,,,0.00,Wunderground v.1.15,2013-02-05 08:40:00,
2013-02-05 02:50:00,38.3,32.4,29.45,NNW,339,0.0,10.0,79,0.00,,,0.00,Wunderground v.1.15,2013-02-05 08:50:00,
2013-02-05 03:00:00,38.3,32.7,29.45,NNW,339,0.0,10.0,80,0.00,,,0.00,Wunderground v.1.15,2013-02-05 09:00:00,
2013-02-05 03:10:00,37.7,32.1,29.45,WNW,300,0.0,10.0,80,0.00,,,0.00,Wunderground v.1.15,2013-02-05 09:10:00,
2013-02-05 03:15:00,37.8,32.2,29.45,NW,307,1.0,10.0,80,0.00,,,0.00,Wunderground v.1.15,2013-02-05 09:15:00,
2013-02-05 03:35:00,37.4,32.1,29.45,SW,231,1.0,10.0,81,0.00,,,0.00,Wunderground v.1.15,2013-02-05 09:35:00,
2013-02-05 03:45:00,36.9,31.6,29.45,SW,231,0.0,10.0,81,0.00,,,0.00,Wunderground v.1.15,2013-02-05 09:45:00,
2013-02-05 03:55:00,36.7,31.7,29.45,SW,231,0.0,10.0,82,0.00,,,0.00,Wunderground v.1.15,2013-02-05 09:55:00,
2013-02-05 04:00:00,36.5,31.5,29.45,SW,231,0.0,10.0,82,0.00,,,0.00,Wunderground v.1.15,2013-02-05 10:00:00,
2013-02-05 04:10:00,36.6,31.9,29.45,SW,231,0.0,10.0,83,0.00,,,0.00,Wunderground v.1.15,2013-02-05 10:10:00,
2013-02-05 04:15:00,36.2,31.2,29.45,SW,231,0.0,10.0,82,0.00,,,0.00,Wunderground v.1.15,2013-02-05 10:15:00,
2013-02-05 04:20:00,35.8,31.1,29.46,SW,231,0.0,10.0,83,0.00,,,0.00,Wunderground v.1.15,2013-02-05 10:20:00,
2013-02-05 04:30:00,35.5,31.4,29.46,SW,231,0.0,10.0,85,0.00,,,0.00,Wunderground v.1.15,2013-02-05 10:30:00,
2013-02-05 04:40:00,35.0,30.4,29.46,SW,231,0.0,10.0,83,0.00,,,0.00,Wunderground v.1.15,2013-02-05 10:40:00,
2013-02-05 04:45:00,34.5,30.5,29.46,SW,231,0.0,10.0,85,0.00,,,0.00,Wunderground v.1.15,2013-02-05 10:45:00,
2013-02-05 04:50:00,34.2,30.4,29.46,SW,231,0.0,10.0,86,0.00,,,0.00,Wunderground v.1.15,2013-02-05 10:50:00,
2013-02-05 05:01:00,33.9,30.4,29.46,SW,231,0.0,10.0,87,0.00,,,0.00,Wunderground v.1.15,2013-02-05 11:01:00,
2013-02-05 05:10:00,34.7,31.5,29.46,West,262,1.0,10.0,88,0.00,,,0.00,Wunderground v.1.15,2013-02-05 11:10:00,
2013-02-05 05:20:00,34.5,31.0,29.47,West,262,0.0,10.0,87,0.00,,,0.00,Wunderground v.1.15,2013-02-05 11:20:00,
2013-02-05 05:25:00,34.3,31.1,29.47,West,262,0.0,10.0,88,0.00,,,0.00,Wunderground v.1.15,2013-02-05 11:25:00,
2013-02-05 05:30:00,34.4,31.2,29.47,West,262,0.0,10.0,88,0.00,,,0.00,Wunderground v.1.15,2013-02-05 11:30:00,
2013-02-05 05:40:00,33.6,30.4,29.48,West,262,0.0,10.0,88,0.00,,,0.00,Wunderground v.1.15,2013-02-05 11:40:00,
2013-02-05 05:45:00,33.5,30.6,29.48,West,262,0.0,10.0,89,0.00,,,0.00,Wunderground v.1.15,2013-02-05 11:45:00,
2013-02-05 05:50:00,33.6,31.0,29.48,West,262,0.0,10.0,90,0.00,,,0.00,Wunderground v.1.15,2013-02-05 11:50:00,
2013-02-05 05:55:00,33.6,31.0,29.48,West,262,0.0,10.0,90,0.00,,,0.00,Wunderground v.1.15,2013-02-05 11:55:00,
2013-02-05 06:00:00,33.4,30.5,29.48,West,262,0.0,10.0,89,0.00,,,0.00,Wunderground v.1.15,2013-02-05 12:00:00,
2013-02-05 06:10:00,33.5,30.9,29.48,West,259,0.0,10.0,90,0.00,,,0.00,Wunderground v.1.15,2013-02-05 12:10:00,
2013-02-05 06:20:00,33.5,30.9,29.49,WNW,293,1.0,10.0,90,0.00,,,0.00,Wunderground v.1.15,2013-02-05 12:20:00,
2013-02-05 06:30:00,33.9,30.7,29.49,WNW,302,1.0,10.0,88,0.00,,,0.00,Wunderground v.1.15,2013-02-05 12:30:00,
2013-02-05 06:35:00,33.7,30.8,29.49,WNW,302,1.0,10.0,89,0.00,,,0.00,Wunderground v.1.15,2013-02-05 12:35:00,
2013-02-05 06:40:00,33.7,30.5,29.49,WNW,302,1.0,1.0,88,0.00,,,0.00,Wunderground v.1.15,2013-02-05 12:40:00,
2013-02-05 06:50:00,33.0,30.4,29.49,NW,304,0.0,10.0,90,0.00,,,0.00,Wunderground v.1.15,2013-02-05 12:50:00,
2013-02-05 07:01:00,33.4,30.8,29.50,NW,315,1.0,1.0,90,0.00,,,0.00,Wunderground v.1.15,2013-02-05 13:01:00,
2013-02-05 07:10:00,32.9,29.7,29.50,NNW,347,0.0,10.0,88,0.00,,,0.00,Wunderground v.1.15,2013-02-05 13:10:00,
2013-02-05 07:15:00,32.3,29.1,29.50,NNW,347,0.0,10.0,88,0.00,,,0.00,Wunderground v.1.15,2013-02-05 13:15:00,
2013-02-05 07:25:00,33.0,30.4,29.51,WNW,293,0.0,10.0,90,0.00,,,0.00,Wunderground v.1.15,2013-02-05 13:25:00,
2013-02-05 07:30:00,32.9,30.0,29.51,WNW,293,0.0,10.0,89,0.00,,,0.00,Wunderground v.1.15,2013-02-05 13:30:00,
2013-02-05 07:40:00,33.0,29.8,29.51,WNW,293,0.0,10.0,88,0.00,,,0.00,Wunderground v.1.15,2013-02-05 13:40:00,
2013-02-05 07:50:00,34.1,30.6,29.51,WNW,294,0.0,10.0,87,0.00,,,0.00,Wunderground v.1.15,2013-02-05 13:50:00,
2013-02-05 08:05:00,36.6,31.9,29.52,WNW,294,0.0,10.0,83,0.00,,,0.00,Wunderground v.1.15,2013-02-05 14:05:00,
2013-02-05 08:15:00,37.4,31.5,29.52,WNW,293,0.0,10.0,79,0.00,,,0.00,Wunderground v.1.15,2013-02-05 14:15:00,
2013-02-05 08:20:00,37.4,31.8,29.53,WNW,293,0.0,10.0,80,0.00,,,0.00,Wunderground v.1.15,2013-02-05 14:20:00,
2013-02-05 08:30:00,39.1,32.8,29.53,WNW,293,0.0,10.0,78,0.00,,,0.00,Wunderground v.1.15,2013-02-05 14:30:00,
2013-02-05 08:40:00,40.0,33.4,29.53,WNW,293,0.0,10.0,77,0.00,,,0.00,Wunderground v.1.15,2013-02-05 14:40:00,
2013-02-05 08:45:00,40.6,34.0,29.54,WNW,293,0.0,10.0,77,0.00,,,0.00,Wunderground v.1.15,2013-02-05 14:45:00,
2013-02-05 08:55:00,42.0,35.0,29.54,WNW,292,0.0,10.0,76,0.00,,,0.00,Wunderground v.1.15,2013-02-05 14:55:00,
2013-02-05 09:00:00,42.1,34.4,29.54,SW,231,0.0,10.0,74,0.00,,,0.00,Wunderground v.1.15,2013-02-05 15:00:00,
2013-02-05 09:10:00,41.5,34.5,29.54,WSW,242,1.0,1.0,76,0.00,,,0.00,Wunderground v.1.15,2013-02-05 15:10:00,
2013-02-05 09:20:00,42.0,35.0,29.54,WSW,245,0.0,10.0,76,0.00,,,0.00,Wunderground v.1.15,2013-02-05 15:20:00,
2013-02-05 09:30:00,43.3,35.2,29.55,West,264,0.0,10.0,73,0.00,,,0.00,Wunderground v.1.15,2013-02-05 15:30:00,
2013-02-05 09:35:00,43.9,35.5,29.55,West,260,0.0,10.0,72,0.00,,,0.00,Wunderground v.1.15,2013-02-05 15:35:00,
2013-02-05 09:45:00,45.0,35.8,29.55,West,280,1.0,10.0,70,0.00,,,0.00,Wunderground v.1.15,2013-02-05 15:45:00,
2013-02-05 09:55:00,45.1,37.6,29.55,SW,229,2.0,3.0,75,0.00,,,0.00,Wunderground v.1.15,2013-02-05 15:55:00,
2013-02-05 10:00:00,45.1,38.0,29.55,West,260,3.0,3.0,76,0.00,,,0.00,Wunderground v.1.15,2013-02-05 16:00:00,
2013-02-05 10:10:00,45.6,38.8,29.56,WNW,294,2.0,10.0,77,0.00,,,0.00,Wunderground v.1.15,2013-02-05 16:10:00,
2013-02-05 10:20:00,46.5,39.3,29.56,West,266,2.0,2.0,76,0.00,,,0.00,Wunderground v.1.15,2013-02-05 16:20:00,
2013-02-05 10:30:00,46.9,40.1,29.56,SSW,201,2.0,10.0,77,0.00,,,0.00,Wunderground v.1.15,2013-02-05 16:30:00,
2013-02-05 10:35:00,47.3,40.5,29.56,SW,236,3.0,10.0,77,0.00,,,0.00,Wunderground v.1.15,2013-02-05 16:35:00,
2013-02-05 10:45:00,47.8,41.3,29.56,SSW,197,3.0,10.0,78,0.00,,,0.00,Wunderground v.1.15,2013-02-05 16:45:00,
2013-02-05 10:50:00,48.5,42.0,29.56,SW,224,4.0,10.0,78,0.00,,,0.00,Wunderground v.1.15,2013-02-05 16:50:00,
2013-02-05 11:00:00,50.0,43.1,29.56,SW,219,4.0,4.0,77,0.00,,,0.00,Wunderground v.1.15,2013-02-05 17:00:00,
2013-02-05 11:10:00,51.4,43.4,29.56,West,266,2.0,10.0,74,0.00,,,0.00,Wunderground v.1.15,2013-02-05 17:10:00,
2013-02-05 11:20:00,52.5,43.7,29.56,West,259,2.0,10.0,72,0.00,,,0.00,Wunderground v.1.15,2013-02-05 17:20:00,
2013-02-05 11:30:00,54.5,44.5,29.57,WNW,299,3.0,10.0,69,0.00,,,0.00,Wunderground v.1.15,2013-02-05 17:30:00,
2013-02-05 11:40:00,54.6,45.0,29.57,WSW,237,2.0,10.0,70,0.00,,,0.00,Wunderground v.1.15,2013-02-05 17:40:00,
2013-02-05 11:50:00,55.9,44.7,29.57,WSW,246,1.0,10.0,66,0.00,,,0.00,Wunderground v.1.15,2013-02-05 17:50:00,
2013-02-05 11:55:00,56.8,45.2,29.56,SSW,211,1.0,10.0,65,0.00,,,0.00,Wunderground v.1.15,2013-02-05 17:55:00,
2013-02-05 12:00:00,57.4,44.9,29.56,SE,131,1.0,10.0,63,0.00,,,0.00,Wunderground v.1.15,2013-02-05 18:00:00,
2013-02-05 12:10:00,58.2,44.8,29.55,WSW,249,1.0,1.0,61,0.00,,,0.00,Wunderground v.1.15,2013-02-05 18:10:00,
2013-02-05 12:20:00,58.9,44.6,29.55,West,266,2.0,2.0,59,0.00,,,0.00,Wunderground v.1.15,2013-02-05 18:20:00,
2013-02-05 12:30:00,59.7,44.4,29.54,SSE,157,2.0,2.0,57,0.00,,,0.00,Wunderground v.1.15,2013-02-05 18:30:00,
2013-02-05 12:40:00,60.6,44.3,29.54,West,262,2.0,10.0,55,0.00,,,0.00,Wunderground v.1.15,2013-02-05 18:40:00,
2013-02-05 12:50:00,61.0,42.7,29.53,SSW,203,3.0,3.0,51,0.00,,,0.00,Wunderground v.1.15,2013-02-05 18:50:00,
2013-02-05 13:00:00,63.2,43.2,29.53,SE,139,1.0,10.0,48,0.00,,,0.00,Wunderground v.1.15,2013-02-05 19:00:00,
2013-02-05 13:10:00,63.8,42.0,29.53,NW,321,1.0,10.0,45,0.00,,,0.00,Wunderground v.1.15,2013-02-05 19:10:00,
2013-02-05 13:20:00,63.7,43.1,29.52,East,79,1.0,10.0,47,0.00,,,0.00,Wunderground v.1.15,2013-02-05 19:20:00,
2013-02-05 13:30:00,63.6,42.4,29.52,SSE,153,1.0,2.0,46,0.00,,,0.00,Wunderground v.1.15,2013-02-05 19:30:00,
2013-02-05 13:40:00,63.6,41.3,29.51,East,99,3.0,10.0,44,0.00,,,0.00,Wunderground v.1.15,2013-02-05 19:40:00,
2013-02-05 13:50:00,65.0,40.7,29.52,WNW,284,1.0,10.0,41,0.00,,,0.00,Wunderground v.1.15,2013-02-05 19:50:00,
2013-02-05 13:55:00,66.1,40.4,29.51,West,281,2.0,10.0,39,0.00,,,0.00,Wunderground v.1.15,2013-02-05 19:55:00,
2013-02-05 14:05:00,66.1,39.7,29.51,West,267,2.0,10.0,38,0.00,,,0.00,Wunderground v.1.15,2013-02-05 20:05:00,
2013-02-05 14:15:00,65.0,38.1,29.51,NW,305,4.0,10.0,37,0.00,,,0.00,Wunderground v.1.15,2013-02-05 20:15:00,
2013-02-05 14:25:00,65.6,39.3,29.51,NW,318,2.0,10.0,38,0.00,,,0.00,Wunderground v.1.15,2013-02-05 20:25:00,
2013-02-05 14:35:00,66.7,38.2,29.51,NW,304,3.0,3.0,35,0.00,,,0.00,Wunderground v.1.15,2013-02-05 20:35:00,
2013-02-05 14:45:00,67.2,37.9,29.51,WNW,287,2.0,2.0,34,0.00,,,0.00,Wunderground v.1.15,2013-02-05 20:45:00,
2013-02-05 14:50:00,67.5,37.4,29.51,SW,221,1.0,10.0,33,0.00,,,0.00,Wunderground v.1.15,2013-02-05 20:50:00,
2013-02-05 15:00:00,67.8,36.8,29.50,West,262,3.0,10.0,32,0.00,,,0.00,Wunderground v.1.15,2013-02-05 21:00:00,
2013-02-05 15:10:00,68.1,35.5,29.50,West,263,3.0,3.0,30,0.00,,,0.00,Wunderground v.1.15,2013-02-05 21:10:00,
2013-02-05 15:20:00,66.9,35.3,29.50,NW,307,3.0,3.0,31,0.00,,,0.00,Wunderground v.1.15,2013-02-05 21:20:00,
2013-02-05 15:30:00,67.1,35.4,29.50,West,278,3.0,10.0,31,0.00,,,0.00,Wunderground v.1.15,2013-02-05 21:30:00,
2013-02-05 15:40:00,67.0,36.1,29.50,WSW,245,3.0,10.0,32,0.00,,,0.00,Wunderground v.1.15,2013-02-05 21:40:00,
2013-02-05 15:50:00,68.2,36.4,29.50,NW,321,3.0,10.0,31,0.00,,,0.00,Wunderground v.1.15,2013-02-05 21:50:00,
2013-02-05 16:00:00,67.7,36.0,29.50,West,269,2.0,2.0,31,0.00,,,0.00,Wunderground v.1.15,2013-02-05 22:00:00,
2013-02-05 16:10:00,69.2,36.4,29.50,WSW,252,1.0,1.0,30,0.00,,,0.00,Wunderground v.1.15,2013-02-05 22:10:00,
2013-02-05 16:20:00,68.0,35.4,29.50,NNE,23,3.0,10.0,30,0.00,,,0.00,Wunderground v.1.15,2013-02-05 22:20:00,
2013-02-05 16:30:00,67.1,35.4,29.50,NW,314,2.0,10.0,31,0.00,,,0.00,Wunderground v.1.15,2013-02-05 22:30:00,
2013-02-05 16:40:00,67.1,35.4,29.50,NE,42,2.0,10.0,31,0.00,,,0.00,Wunderground v.1.15,2013-02-05 22:40:00,
2013-02-05 16:45:00,66.7,35.9,29.50,NW,319,2.0,10.0,32,0.00,,,0.00,Wunderground v.1.15,2013-02-05 22:45:00,
2013-02-05 16:55:00,67.0,36.1,29.50,NE,53,1.0,5.0,32,0.00,,,0.00,Wunderground v.1.15,2013-02-05 22:55:00,
2013-02-05 17:01:00,66.5,35.7,29.51,ENE,60,2.0,2.0,32,0.00,,,0.00,Wunderground v.1.15,2013-02-05 23:01:00,
2013-02-05 17:10:00,66.2,35.4,29.50,NE,49,3.0,10.0,32,0.00,,,0.00,Wunderground v.1.15,2013-02-05 23:10:00,
2013-02-05 17:15:00,66.0,35.3,29.51,NE,50,3.0,3.0,32,0.00,,,0.00,Wunderground v.1.15,2013-02-05 23:15:00,
2013-02-05 17:25:00,65.8,35.9,29.51,ENE,60,3.0,10.0,33,0.00,,,0.00,Wunderground v.1.15,2013-02-05 23:25:00,
2013-02-05 17:35:00,65.1,34.5,29.51,NE,44,3.0,3.0,32,0.00,,,0.00,Wunderground v.1.15,2013-02-05 23:35:00,
2013-02-05 17:45:00,64.5,34.0,29.51,NE,56,2.0,2.0,32,0.00,,,0.00,Wunderground v.1.15,2013-02-05 23:45:00,
2013-02-05 17:50:00,64.1,33.6,29.51,ENE,58,1.0,10.0,32,0.00,,,0.00,Wunderground v.1.15,2013-02-05 23:50:00,
2013-02-05 17:55:00,63.7,33.3,29.51,ENE,58,1.0,10.0,32,0.00,,,0.00,Wunderground v.1.15,2013-02-05 23:55:00,
2013-02-05 18:05:00,63.0,32.7,29.51,ENE,58,1.0,1.0,32,0.00,,,0.00,Wunderground v.1.15,2013-02-06 00:05:00,
2013-02-05 18:15:00,62.2,32.7,29.51,ENE,58,0.0,10.0,33,0.00,,,0.00,Wunderground v.1.15,2013-02-06 00:15:00,
2013-02-05 18:20:00,61.9,33.9,29.51,East,82,1.0,10.0,35,0.00,,,0.00,Wunderground v.1.15,2013-02-06 00:20:00,
2013-02-05 18:30:00,61.4,35.5,29.52,East,83,1.0,10.0,38,0.00,,,0.00,Wunderground v.1.15,2013-02-06 00:30:00,
2013-02-05 18:40:00,60.8,36.3,29.52,East,82,1.0,10.0,40,0.00,,,0.00,Wunderground v.1.15,2013-02-06 00:40:00,
2013-02-05 18:50:00,60.4,37.2,29.52,ENE,61,2.0,10.0,42,0.00,,,0.00,Wunderground v.1.15,2013-02-06 00:50:00,
2013-02-05 18:55:00,59.9,37.3,29.52,NE,46,2.0,2.0,43,0.00,,,0.00,Wunderground v.1.15,2013-02-06 00:55:00,
2013-02-05 19:05:00,59.4,37.5,29.53,NE,46,1.0,10.0,44,0.00,,,0.00,Wunderground v.1.15,2013-02-06 01:05:00,
2013-02-05 19:15:00,58.3,37.6,29.53,NNE,16,2.0,10.0,46,0.00,,,0.00,Wunderground v.1.15,2013-02-06 01:15:00,
2013-02-05 19:20:00,57.6,37.0,29.53,NE,37,3.0,10.0,46,0.00,,,0.00,Wunderground v.1.15,2013-02-06 01:20:00,
2013-02-05 19:25:00,57.0,38.0,29.53,NE,43,3.0,3.0,49,0.00,,,0.00,Wunderground v.1.15,2013-02-06 01:25:00,
2013-02-05 19:35:00,56.3,37.4,29.54,NE,51,2.0,2.0,49,0.00,,,0.00,Wunderground v.1.15,2013-02-06 01:35:00,
2013-02-05 19:45:00,55.2,37.4,29.54,ENE,62,2.0,10.0,51,0.00,,,0.00,Wunderground v.1.15,2013-02-06 01:45:00,
2013-02-05 19:55:00,54.7,37.9,29.54,NE,52,3.0,10.0,53,0.00,,,0.00,Wunderground v.1.15,2013-02-06 01:55:00,
2013-02-05 20:00:00,54.5,38.7,29.54,NNE,26,3.0,10.0,55,0.00,,,0.00,Wunderground v.1.15,2013-02-06 02:00:00,
2013-02-05 20:10:00,54.1,38.7,29.55,ENE,76,3.0,3.0,56,0.00,,,0.00,Wunderground v.1.15,2013-02-06 02:10:00,
2013-02-05 20:20:00,53.9,39.0,29.55,ENE,74,2.0,10.0,57,0.00,,,0.00,Wunderground v.1.15,2013-02-06 02:20:00,
2013-02-05 20:30:00,54.0,39.1,29.55,ENE,58,3.0,10.0,57,0.00,,,0.00,Wunderground v.1.15,2013-02-06 02:30:00,
2013-02-05 20:40:00,53.7,38.8,29.55,ENE,77,2.0,10.0,57,0.00,,,0.00,Wunderground v.1.15,2013-02-06 02:40:00,
2013-02-05 20:50:00,53.4,38.5,29.55,ENE,77,2.0,2.0,57,0.00,,,0.00,Wunderground v.1.15,2013-02-06 02:50:00,
2013-02-05 21:00:00,53.4,38.1,29.55,ENE,62,2.0,10.0,56,0.00,,,0.00,Wunderground v.1.15,2013-02-06 03:00:00,
2013-02-05 21:10:00,52.7,37.9,29.55,NE,53,2.0,10.0,57,0.00,,,0.00,Wunderground v.1.15,2013-02-06 03:10:00,
2013-02-05 21:15:00,52.6,37.8,29.55,ENE,57,2.0,10.0,57,0.00,,,0.00,Wunderground v.1.15,2013-02-06 03:15:00,
2013-02-05 21:25:00,52.1,37.8,29.56,ENE,57,2.0,10.0,58,0.00,,,0.00,Wunderground v.1.15,2013-02-06 03:25:00,
2013-02-05 21:30:00,51.6,37.7,29.56,ENE,57,2.0,2.0,59,0.00,,,0.00,Wunderground v.1.15,2013-02-06 03:30:00,
2013-02-05 21:40:00,50.7,37.3,29.56,ENE,57,0.0,10.0,60,0.00,,,0.00,Wunderground v.1.15,2013-02-06 03:40:00,
2013-02-05 21:50:00,50.8,37.4,29.56,ENE,57,0.0,10.0,60,0.00,,,0.00,Wunderground v.1.15,2013-02-06 03:50:00,
2013-02-05 22:00:00,50.9,37.1,29.56,NE,56,0.0,10.0,59,0.00,,,0.00,Wunderground v.1.15,2013-02-06 04:00:00,
2013-02-05 22:10:00,51.0,36.7,29.56,NE,56,1.0,10.0,58,0.00,,,0.00,Wunderground v.1.15,2013-02-06 04:10:00,
2013-02-05 22:20:00,50.7,36.5,29.56,NE,47,1.0,10.0,58,0.00,,,0.00,Wunderground v.1.15,2013-02-06 04:20:00,
2013-02-05 22:30:00,50.1,36.3,29.56,NE,46,1.0,10.0,59,0.00,,,0.00,Wunderground v.1.15,2013-02-06 04:30:00,
2013-02-05 22:40:00,49.7,36.4,29.57,NE,46,1.0,1.0,60,0.00,,,0.00,Wunderground v.1.15,2013-02-06 04:40:00,
2013-02-05 22:50:00,48.4,36.4,29.57,NE,50,0.0,10.0,63,0.00,,,0.00,Wunderground v.1.15,2013-02-06 04:50:00,
2013-02-05 23:01:00,48.1,36.1,29.57,NE,50,0.0,10.0,63,0.00,,,0.00,Wunderground v.1.15,2013-02-06 05:01:00,
2013-02-05 23:05:00,48.2,35.8,29.57,NE,49,1.0,10.0,62,0.00,,,0.00,Wunderground v.1.15,2013-02-06 05:05:00,
2013-02-05 23:10:00,47.9,35.5,29.57,NE,49,0.0,10.0,62,0.00,,,0.00,Wunderground v.1.15,2013-02-06 05:10:00,
2013-02-05 23:20:00,47.4,35.8,29.57,NE,49,0.0,10.0,64,0.00,,,0.00,Wunderground v.1.15,2013-02-06 05:20:00,
2013-02-05 23:25:00,47.8,35.8,29.57,NE,50,1.0,10.0,63,0.00,,,0.00,Wunderground v.1.15,2013-02-06 05:25:00,
2013-02-05 23:35:00,47.9,35.9,29.57,NE,50,1.0,1.0,63,0.00,,,0.00,Wunderground v.1.15,2013-02-06 05:35:00,
2013-02-05 23:45:00,46.1,35.0,29.57,NE,50,0.0,10.0,65,0.00,,,0.00,Wunderground v.1.15,2013-02-06 05:45:00,
2013-02-05 23:55:00,44.9,35.0,29.58,NE,50,0.0,10.0,68,0.00,,,0.00,Wunderground v.1.15,2013-02-06 05:55:00,